createdAt,value
2018-09-10T00:01:35.072Z,9.90
2018-09-10T00:04:03.967Z,9.73
2018-09-10T00:06:32.834Z,10.77
2018-09-10T00:09:01.691Z,9.47
2018-09-10T00:11:30.643Z,10.63
2018-09-10T00:13:59.473Z,9.30
2018-09-10T00:16:28.303Z,10.17
2018-09-10T00:18:57.134Z,9.43
2018-09-10T00:21:26.316Z,9.90
2018-09-10T00:23:55.255Z,10.33
2018-09-10T00:26:24.080Z,10.30
2018-09-10T00:28:52.899Z,9.33
2018-09-10T00:31:21.806Z,9.37
2018-09-10T00:33:50.611Z,10.97
2018-09-10T00:36:19.563Z,9.60
2018-09-10T00:38:48.659Z,8.40
2018-09-10T00:41:17.562Z,9.80
2018-09-10T00:43:46.426Z,11.30
2018-09-10T00:46:15.299Z,9.63
2018-09-10T00:48:44.207Z,10.40
2018-09-10T00:51:13.123Z,9.30
2018-09-10T00:53:41.960Z,9.57
2018-09-10T00:56:10.783Z,9.90
2018-09-10T00:58:39.595Z,10.63
2018-09-10T01:01:08.605Z,9.80
2018-09-10T01:03:37.438Z,9.30
2018-09-10T01:06:06.302Z,9.57
2018-09-10T01:08:35.107Z,11.07
2018-09-10T01:11:03.956Z,10.50
2018-09-10T01:13:32.816Z,9.53
2018-09-10T01:16:01.656Z,10.27
2018-09-10T01:18:31.007Z,9.77
2018-09-10T01:21:00.556Z,9.67
2018-09-10T01:23:29.719Z,9.80
2018-09-10T01:25:58.679Z,9.30
2018-09-10T01:28:27.550Z,8.83
2018-09-10T01:30:56.431Z,8.73
2018-09-10T01:33:31.080Z,10.27
2018-09-10T01:36:00.283Z,9.53
2018-09-10T01:38:29.114Z,10.37
2018-09-10T01:40:58.087Z,10.83
2018-09-10T01:43:26.908Z,13.30
2018-09-10T01:45:55.767Z,9.77
2018-09-10T01:48:24.950Z,10.13
2018-09-10T01:50:53.873Z,9.80
2018-09-10T01:53:22.700Z,10.53
2018-09-10T01:55:51.543Z,9.60
2018-09-10T01:58:20.379Z,9.63
2018-09-10T02:00:49.232Z,11.00
2018-09-10T02:03:18.071Z,9.60
2018-09-10T02:05:47.008Z,10.83
2018-09-10T02:08:15.920Z,10.37
2018-09-10T02:10:44.776Z,11.33
2018-09-10T02:13:13.615Z,12.30
2018-09-10T02:15:48.103Z,9.60
2018-09-10T02:18:17.651Z,10.27
2018-09-10T02:20:46.518Z,10.30
2018-09-10T02:23:15.378Z,10.67
2018-09-10T02:25:44.215Z,9.30
2018-09-10T02:28:13.117Z,9.17
2018-09-10T02:30:42.051Z,10.00
2018-09-10T02:33:10.909Z,9.03
2018-09-10T02:35:39.735Z,11.03
2018-09-10T02:38:08.572Z,9.70
2018-09-10T02:40:37.431Z,10.40
2018-09-10T02:43:06.324Z,10.90
2018-09-10T02:45:35.256Z,9.47
2018-09-10T02:48:04.227Z,9.50
2018-09-10T02:50:33.176Z,11.00
2018-09-10T02:53:02.044Z,10.30
2018-09-10T02:55:31.347Z,9.90
2018-09-10T02:58:00.357Z,10.93
2018-09-10T03:00:29.258Z,9.43
2018-09-10T03:02:58.087Z,11.50
2018-09-10T03:05:26.958Z,10.10
2018-09-10T03:07:55.788Z,10.60
2018-09-10T03:10:24.833Z,11.40
2018-09-10T03:12:54.564Z,9.77
2018-09-10T03:15:23.571Z,9.00
2018-09-10T03:17:52.823Z,8.23
2018-09-10T03:20:21.960Z,11.30
2018-09-10T03:22:50.895Z,10.23
2018-09-10T03:25:19.749Z,11.13
2018-09-10T03:27:48.573Z,10.00
2018-09-10T03:30:17.507Z,11.13
2018-09-10T03:32:46.371Z,9.27
2018-09-10T03:35:15.220Z,9.10
2018-09-10T03:37:44.025Z,9.23
2018-09-10T03:40:12.972Z,10.60
2018-09-10T03:42:41.796Z,10.67
2018-09-10T03:45:10.614Z,9.47
2018-09-10T03:47:39.440Z,10.30
2018-09-10T03:50:08.435Z,11.40
2018-09-10T03:52:37.258Z,9.13
2018-09-10T03:55:06.165Z,11.37
2018-09-10T03:57:35.129Z,10.63
2018-09-10T04:00:04.247Z,10.27
2018-09-10T04:02:33.103Z,11.27
2018-09-10T04:05:01.965Z,9.93
2018-09-10T04:07:30.791Z,10.40
2018-09-10T04:09:59.630Z,10.90
2018-09-10T04:12:28.447Z,10.60
2018-09-10T04:14:57.443Z,10.00
2018-09-10T04:17:26.307Z,9.83
2018-09-10T04:19:59.852Z,9.77
2018-09-10T04:22:29.458Z,10.90
2018-09-10T04:24:58.604Z,11.83
2018-09-10T04:27:27.532Z,12.23
2018-09-10T04:29:56.409Z,9.70
2018-09-10T04:32:25.243Z,9.70
2018-09-10T04:34:54.132Z,11.40
2018-09-10T04:37:22.957Z,9.60
2018-09-10T04:39:52.110Z,10.80
2018-09-10T04:42:20.960Z,9.47
2018-09-10T04:44:49.709Z,11.57
2018-09-10T04:47:18.568Z,10.57
2018-09-10T04:49:47.582Z,10.40
2018-09-10T04:52:16.415Z,11.90
2018-09-10T04:54:45.259Z,10.07
2018-09-10T04:57:14.548Z,11.00
2018-09-10T04:59:48.587Z,9.73
2018-09-10T05:02:17.543Z,10.00
2018-09-10T05:04:46.419Z,12.10
2018-09-10T05:07:15.244Z,11.07
2018-09-10T05:09:44.079Z,11.07
2018-09-10T05:12:12.903Z,14.50
2018-09-10T05:14:41.765Z,11.30
2018-09-10T05:17:10.596Z,11.27
2018-09-10T05:19:39.538Z,10.70
2018-09-10T05:22:08.557Z,10.50
2018-09-10T05:24:37.323Z,11.07
2018-09-10T05:27:06.159Z,12.10
2018-09-10T05:29:35.001Z,11.80
2018-09-10T05:32:03.984Z,13.70
2018-09-10T05:34:32.846Z,13.50
2018-09-10T05:37:01.651Z,11.50
2018-09-10T05:39:30.500Z,11.80
2018-09-10T05:41:59.359Z,12.40
2018-09-10T05:44:28.372Z,12.40
2018-09-10T05:46:58.188Z,15.03
2018-09-10T05:49:27.020Z,12.63
2018-09-10T05:51:55.836Z,11.47
2018-09-10T05:54:24.784Z,11.63
2018-09-10T05:56:53.744Z,11.13
2018-09-10T05:59:22.543Z,11.30
2018-09-10T06:01:51.404Z,12.53
2018-09-10T06:04:20.280Z,12.87
2018-09-10T06:06:49.299Z,11.97
2018-09-10T06:09:18.278Z,10.53
2018-09-10T06:11:47.100Z,12.20
2018-09-10T06:14:15.978Z,12.83
2018-09-10T06:16:44.784Z,11.67
2018-09-10T06:19:13.671Z,12.00
2018-09-10T06:21:42.662Z,12.53
2018-09-10T06:24:11.469Z,11.90
2018-09-10T06:26:40.318Z,12.20
2018-09-10T06:29:09.163Z,11.97
2018-09-10T06:31:37.995Z,11.37
2018-09-10T06:34:07.063Z,12.03
2018-09-10T06:36:35.869Z,11.13
2018-09-10T06:39:08.667Z,11.37
2018-09-10T06:41:37.466Z,11.93
2018-09-10T06:44:06.487Z,10.87
2018-09-10T06:46:35.315Z,10.83
2018-09-10T06:49:04.221Z,15.20
2018-09-10T06:51:33.159Z,11.07
2018-09-10T06:54:01.996Z,11.17
2018-09-10T06:56:30.811Z,10.90
2018-09-10T06:58:59.632Z,10.47
2018-09-10T07:01:28.457Z,11.13
2018-09-10T07:03:57.375Z,11.80
2018-09-10T07:06:26.262Z,11.60
2018-09-10T07:08:55.067Z,12.13
2018-09-10T07:11:24.015Z,17.03
2018-09-10T07:13:53.424Z,10.67
2018-09-10T07:16:22.255Z,10.23
2018-09-10T07:18:51.181Z,10.30
2018-09-10T07:21:19.968Z,10.50
2018-09-10T07:23:48.787Z,12.20
2018-09-10T07:26:17.648Z,11.17
2018-09-10T07:28:46.480Z,10.60
2018-09-10T07:31:15.352Z,11.33
2018-09-10T07:33:44.193Z,11.10
2018-09-10T07:36:13.050Z,11.23
2018-09-10T07:38:41.876Z,12.03
2018-09-10T07:41:10.720Z,10.23
2018-09-10T07:43:39.610Z,10.07
2018-09-10T07:46:08.453Z,12.27
2018-09-10T07:48:37.255Z,10.90
2018-09-10T07:51:06.116Z,11.33
2018-09-10T07:53:34.947Z,10.57
2018-09-10T07:56:03.812Z,11.00
2018-09-10T07:58:32.740Z,9.87
2018-09-10T08:01:01.573Z,10.27
2018-09-10T08:03:30.423Z,10.40
2018-09-10T08:05:59.295Z,11.17
2018-09-10T08:08:28.115Z,10.50
2018-09-10T08:10:56.995Z,9.90
2018-09-10T08:13:25.831Z,10.57
2018-09-10T08:15:54.667Z,10.53
2018-09-10T08:18:23.527Z,10.23
2018-09-10T08:20:52.384Z,9.10
2018-09-10T08:23:21.252Z,9.33
2018-09-10T08:25:50.121Z,11.00
2018-09-10T08:28:18.941Z,9.90
2018-09-10T08:30:47.782Z,10.03
2018-09-10T08:33:16.584Z,9.17
2018-09-10T08:35:45.444Z,9.90
2018-09-10T08:38:15.222Z,8.93
2018-09-10T08:40:44.055Z,8.57
2018-09-10T08:43:12.903Z,9.83
2018-09-10T08:45:41.732Z,9.57
2018-09-10T08:48:10.654Z,8.73
2018-09-10T08:50:39.491Z,9.30
2018-09-10T08:53:08.396Z,9.57
2018-09-10T08:55:37.418Z,9.30
2018-09-10T08:58:06.294Z,9.50
2018-09-10T09:00:35.203Z,8.83
2018-09-10T09:03:04.410Z,10.07
2018-09-10T09:05:33.252Z,11.20
2018-09-10T09:08:02.195Z,9.03
2018-09-10T09:10:30.955Z,9.63
2018-09-10T09:12:59.789Z,10.80
2018-09-10T09:15:28.611Z,10.83
2018-09-10T09:17:57.978Z,10.70
2018-09-10T09:20:26.860Z,10.60
2018-09-10T09:22:55.735Z,10.80
2018-09-10T09:25:24.578Z,9.43
2018-09-10T09:27:53.427Z,8.70
2018-09-10T09:30:22.428Z,9.63
2018-09-10T09:32:51.201Z,8.90
2018-09-10T09:35:24.578Z,8.87
2018-09-10T09:37:59.093Z,9.30
2018-09-10T09:40:33.595Z,10.07
2018-09-10T09:43:08.160Z,9.80
2018-09-10T09:45:42.488Z,10.63
2018-09-10T09:48:11.324Z,8.33
2018-09-10T09:50:40.153Z,8.03
2018-09-10T09:53:08.972Z,7.80
2018-09-10T09:55:37.799Z,9.03
2018-09-10T09:58:06.637Z,8.90
2018-09-10T10:00:41.080Z,7.90
2018-09-10T10:03:15.349Z,8.43
2018-09-10T10:05:44.423Z,9.03
2018-09-10T10:08:13.279Z,8.50
2018-09-10T10:10:42.135Z,9.17
2018-09-10T10:13:10.969Z,9.57
2018-09-10T10:15:39.842Z,8.30
2018-09-10T10:18:08.656Z,8.37
2018-09-10T10:20:37.500Z,8.63
2018-09-10T10:23:06.355Z,8.93
2018-09-10T10:25:35.226Z,8.90
2018-09-10T10:28:04.085Z,8.43
2018-09-10T10:30:32.932Z,8.43
2018-09-10T10:33:01.761Z,7.93
2018-09-10T10:35:30.716Z,7.83
2018-09-10T10:37:59.507Z,7.67
2018-09-10T10:40:28.355Z,9.33
2018-09-10T10:42:57.192Z,7.57
2018-09-10T10:45:26.044Z,9.13
2018-09-10T10:47:54.917Z,8.50
2018-09-10T10:50:23.760Z,8.43
2018-09-10T10:52:52.603Z,7.90
2018-09-10T10:55:21.466Z,8.50
2018-09-10T10:57:50.863Z,8.90
2018-09-10T11:00:19.688Z,8.57
2018-09-10T11:02:48.527Z,9.00
2018-09-10T11:05:17.427Z,8.90
2018-09-10T11:07:46.271Z,8.20
2018-09-10T11:10:15.116Z,8.30
2018-09-10T11:12:43.944Z,8.53
2018-09-10T11:15:12.808Z,8.73
2018-09-10T11:17:41.637Z,8.33
2018-09-10T11:20:10.499Z,8.63
2018-09-10T11:22:39.327Z,9.13
2018-09-10T11:25:08.219Z,9.00
2018-09-10T11:27:37.129Z,8.90
2018-09-10T11:30:06.296Z,7.97
2018-09-10T11:32:35.287Z,7.57
2018-09-10T11:35:04.196Z,7.67
2018-09-10T11:37:33.087Z,7.93
2018-09-10T11:40:01.995Z,7.53
2018-09-10T11:42:30.862Z,8.00
2018-09-10T11:44:59.686Z,7.87
2018-09-10T11:47:28.504Z,8.70
2018-09-10T11:49:57.351Z,8.33
2018-09-10T11:52:26.179Z,8.80
2018-09-10T11:54:55.028Z,8.73
2018-09-10T11:57:23.843Z,8.70
2018-09-10T11:59:52.651Z,7.20
2018-09-10T12:02:21.511Z,9.27
2018-09-10T12:04:50.335Z,8.93
2018-09-10T12:07:19.263Z,7.70
2018-09-10T12:09:48.112Z,7.80
2018-09-10T12:12:16.981Z,8.23
2018-09-10T12:14:45.930Z,7.80
2018-09-10T12:17:14.896Z,7.80
2018-09-10T12:19:43.834Z,7.20
2018-09-10T12:22:12.687Z,7.03
2018-09-10T12:24:41.564Z,7.40
2018-09-10T12:27:10.404Z,7.33
2018-09-10T12:29:39.208Z,6.23
2018-09-10T12:32:08.096Z,7.20
2018-09-10T12:34:36.956Z,7.30
2018-09-10T12:37:05.899Z,7.70
2018-09-10T12:40:59.245Z,8.10
2018-09-10T12:43:28.100Z,7.13
2018-09-10T12:45:56.952Z,6.73
2018-09-10T12:48:25.820Z,7.20
2018-09-10T12:50:54.680Z,6.83
2018-09-10T12:53:23.584Z,7.47
2018-09-10T12:55:52.457Z,6.87
2018-09-10T12:58:21.316Z,6.90
2018-09-10T13:00:50.273Z,7.77
2018-09-10T13:03:19.107Z,8.67
2018-09-10T13:05:48.012Z,7.63
2018-09-10T13:08:16.916Z,8.13
2018-09-10T13:10:45.812Z,8.23
2018-09-10T13:13:14.600Z,8.87
2018-09-10T13:15:43.444Z,7.77
2018-09-10T13:18:12.247Z,6.70
2018-09-10T13:20:41.077Z,8.10
2018-09-10T13:23:09.918Z,7.40
2018-09-10T13:25:38.740Z,7.50
2018-09-10T13:28:07.574Z,8.20
2018-09-10T13:30:36.411Z,7.13
2018-09-10T13:33:05.243Z,8.03
2018-09-10T13:35:34.047Z,7.37
2018-09-10T13:38:02.901Z,6.50
2018-09-10T13:40:31.756Z,7.20
2018-09-10T13:43:00.635Z,8.27
2018-09-10T13:45:29.474Z,7.77
2018-09-10T13:47:58.330Z,7.50
2018-09-10T13:50:27.183Z,7.33
2018-09-10T13:52:55.999Z,7.07
2018-09-10T13:55:25.072Z,7.43
2018-09-10T13:57:53.955Z,7.50
2018-09-10T14:00:22.819Z,7.50
2018-09-10T14:02:51.640Z,8.53
2018-09-10T14:05:20.539Z,8.17
2018-09-10T14:07:49.480Z,7.73
2018-09-10T14:10:18.316Z,6.67
2018-09-10T14:12:47.179Z,8.00
2018-09-10T14:15:16.036Z,7.33
2018-09-10T14:17:44.892Z,7.00
2018-09-10T14:20:13.741Z,7.10
2018-09-10T14:22:42.598Z,8.20
2018-09-10T14:25:11.424Z,7.33
2018-09-10T14:27:40.601Z,7.57
2018-09-10T14:30:09.528Z,7.90
2018-09-10T14:32:38.358Z,7.13
2018-09-10T14:35:07.288Z,7.30
2018-09-10T14:37:36.093Z,7.37
2018-09-10T14:40:05.008Z,7.63
2018-09-10T14:42:33.862Z,7.27
2018-09-10T14:45:02.716Z,6.77
2018-09-10T14:47:31.553Z,8.07
2018-09-10T14:50:00.395Z,7.30
2018-09-10T14:52:29.287Z,7.50
2018-09-10T14:54:58.112Z,7.10
2018-09-10T14:57:26.972Z,7.43
2018-09-10T14:59:55.827Z,7.10
2018-09-10T15:02:24.680Z,6.90
2018-09-10T15:04:53.503Z,7.13
2018-09-10T15:07:22.324Z,7.43
2018-09-10T15:09:51.160Z,7.10
2018-09-10T15:12:19.974Z,6.47
2018-09-10T15:14:48.816Z,7.10
2018-09-10T15:17:17.628Z,6.80
2018-09-10T15:19:46.468Z,6.70
2018-09-10T15:22:15.299Z,6.70
2018-09-10T15:24:44.111Z,6.70
2018-09-10T15:27:12.967Z,8.03
2018-09-10T15:29:41.815Z,7.63
2018-09-10T15:32:10.661Z,6.43
2018-09-10T15:34:39.543Z,6.73
2018-09-10T15:37:08.352Z,6.10
2018-09-10T15:39:37.195Z,6.50
2018-09-10T15:42:06.065Z,5.70
2018-09-10T15:44:34.947Z,7.10
2018-09-10T15:47:03.827Z,6.60
2018-09-10T15:49:32.700Z,6.90
2018-09-10T15:52:01.581Z,7.67
2018-09-10T15:54:30.791Z,6.10
2018-09-10T15:56:59.731Z,6.83
2018-09-10T15:59:28.587Z,6.47
2018-09-10T16:01:57.434Z,6.47
2018-09-10T16:04:26.291Z,6.77
2018-09-10T16:06:55.144Z,5.50
2018-09-10T16:09:23.983Z,6.80
2018-09-10T16:11:52.895Z,6.60
2018-09-10T16:14:21.801Z,7.17
2018-09-10T16:16:51.649Z,6.60
2018-09-10T16:19:20.795Z,6.53
2018-09-10T16:21:49.648Z,6.67
2018-09-10T16:24:18.595Z,7.57
2018-09-10T16:26:47.431Z,7.40
2018-09-10T16:29:16.274Z,6.33
2018-09-10T16:31:45.107Z,6.57
2018-09-10T16:34:13.953Z,6.90
2018-09-10T16:36:42.796Z,7.67
2018-09-10T16:39:12.051Z,5.90
2018-09-10T16:41:40.909Z,7.33
2018-09-10T16:44:09.739Z,6.27
2018-09-10T16:46:38.564Z,6.37
2018-09-10T16:49:07.471Z,6.70
2018-09-10T16:51:36.393Z,6.10
2018-09-10T16:54:05.309Z,8.17
2018-09-10T16:56:34.943Z,7.43
2018-09-10T16:59:03.916Z,6.50
2018-09-10T17:01:32.880Z,7.33
2018-09-10T17:04:01.741Z,7.10
2018-09-10T17:06:30.631Z,7.63
2018-09-10T17:09:00.755Z,7.37
2018-09-10T17:11:29.823Z,7.27
2018-09-10T17:13:58.715Z,7.20
2018-09-10T17:16:28.124Z,7.67
2018-09-10T17:18:57.228Z,6.80
2018-09-10T17:21:27.271Z,7.90
2018-09-10T17:23:56.170Z,7.60
2018-09-10T17:26:25.041Z,8.83
2018-09-10T17:28:54.003Z,6.80
2018-09-10T17:31:22.953Z,6.90
2018-09-10T17:33:51.897Z,6.97
2018-09-10T17:36:20.767Z,8.00
2018-09-10T17:38:49.628Z,6.73
2018-09-10T17:41:18.527Z,7.20
2018-09-10T17:43:47.376Z,7.23
2018-09-10T17:46:16.211Z,7.60
2018-09-10T17:48:45.059Z,8.57
2018-09-10T17:51:16.809Z,7.47
2018-09-10T17:53:46.786Z,7.67
2018-09-10T17:56:16.673Z,7.73
2018-09-10T17:58:45.557Z,8.07
2018-09-10T18:01:15.073Z,8.10
2018-09-10T18:03:44.064Z,14.33
2018-09-10T18:06:12.962Z,8.40
2018-09-10T18:08:42.427Z,8.03
2018-09-10T18:11:11.380Z,9.00
2018-09-10T18:13:40.912Z,7.23
2018-09-10T18:16:09.790Z,7.47
2018-09-10T18:18:38.628Z,8.57
2018-09-10T18:21:07.665Z,9.17
2018-09-10T18:23:37.089Z,9.20
2018-09-10T18:26:06.091Z,8.27
2018-09-10T18:28:35.748Z,8.37
2018-09-10T18:31:04.664Z,8.77
2018-09-10T18:33:33.549Z,8.23
2018-09-10T18:36:02.939Z,7.90
2018-09-10T18:38:32.583Z,8.33
2018-09-10T18:41:02.187Z,7.20
2018-09-10T18:43:31.611Z,7.77
2018-09-10T18:46:01.548Z,8.50
2018-09-10T18:48:31.171Z,8.77
2018-09-10T18:51:00.178Z,7.83
2018-09-10T18:53:29.322Z,8.10
2018-09-10T18:55:59.453Z,7.60
2018-09-10T18:58:28.347Z,7.80
2018-09-10T19:00:57.319Z,6.83
2018-09-10T19:03:26.282Z,8.17
2018-09-10T19:05:55.660Z,8.73
2018-09-10T19:08:25.096Z,8.60
2018-09-10T19:10:54.684Z,9.50
2018-09-10T19:13:23.663Z,8.47
2018-09-10T19:15:52.553Z,8.40
2018-09-10T19:18:25.973Z,7.67
2018-09-10T19:20:55.996Z,8.30
2018-09-10T19:23:25.000Z,9.57
2018-09-10T19:25:53.851Z,7.57
2018-09-10T19:28:22.766Z,7.97
2018-09-10T19:30:53.375Z,9.20
2018-09-10T19:33:22.219Z,8.13
2018-09-10T19:35:51.150Z,7.83
2018-09-10T19:38:20.363Z,9.00
2018-09-10T19:40:49.254Z,8.90
2018-09-10T19:43:19.565Z,8.80
2018-09-10T19:45:48.427Z,8.93
2018-09-10T19:48:17.426Z,9.27
2018-09-10T19:50:46.348Z,8.90
2018-09-10T19:53:16.051Z,8.47
2018-09-10T19:55:45.113Z,8.00
2018-09-10T19:58:15.012Z,8.53
2018-09-10T20:00:43.999Z,8.53
2018-09-10T20:03:13.347Z,8.30
2018-09-10T20:05:42.613Z,9.37
2018-09-10T20:08:11.995Z,9.00
2018-09-10T20:10:41.006Z,8.00
2018-09-10T20:13:09.935Z,12.00
2018-09-10T20:15:38.816Z,8.17
2018-09-10T20:18:07.720Z,8.87
2018-09-10T20:20:36.619Z,8.50
2018-09-10T20:23:06.058Z,7.50
2018-09-10T20:25:35.048Z,8.07
2018-09-10T20:28:04.966Z,8.90
2018-09-10T20:30:33.940Z,8.50
2018-09-10T20:33:03.280Z,7.77
2018-09-10T20:35:32.337Z,8.07
2018-09-10T20:38:01.198Z,8.17
2018-09-10T20:40:30.167Z,9.50
2018-09-10T20:42:59.019Z,9.70
2018-09-10T20:45:27.928Z,8.37
2018-09-10T20:47:56.807Z,9.47
2018-09-10T20:50:26.356Z,7.83
2018-09-10T20:52:55.292Z,7.50
2018-09-10T20:55:24.188Z,8.73
2018-09-10T20:57:53.112Z,8.60
2018-09-10T21:00:30.390Z,8.33
2018-09-10T21:02:59.265Z,8.50
2018-09-10T21:05:28.151Z,8.83
2018-09-10T21:07:57.026Z,7.80
2018-09-10T21:10:27.055Z,6.93
2018-09-10T21:12:55.960Z,8.50
2018-09-10T21:15:24.923Z,8.10
2018-09-10T21:17:53.763Z,7.17
2018-09-10T21:20:22.627Z,7.30
2018-09-10T21:22:51.568Z,9.47
2018-09-10T21:25:21.661Z,7.20
2018-09-10T21:27:50.784Z,8.10
2018-09-10T21:30:19.724Z,7.43
2018-09-10T21:32:48.540Z,8.33
2018-09-10T21:35:17.460Z,8.17
2018-09-10T21:37:46.332Z,8.73
2018-09-10T21:40:15.183Z,8.37
2018-09-10T21:42:44.144Z,8.60
2018-09-10T21:45:13.128Z,9.30
2018-09-10T21:47:41.968Z,7.87
2018-09-10T21:50:11.106Z,10.10
2018-09-10T21:52:39.995Z,8.50
2018-09-10T21:55:08.866Z,8.23
2018-09-10T21:57:37.732Z,8.03
2018-09-10T22:00:07.416Z,7.93
2018-09-10T22:02:36.360Z,8.20
2018-09-10T22:05:05.224Z,7.77
2018-09-10T22:07:34.098Z,8.70
2018-09-10T22:10:03.071Z,8.00
2018-09-10T22:12:31.899Z,8.87
2018-09-10T22:15:00.731Z,8.50
2018-09-10T22:17:29.563Z,7.37
2018-09-10T22:19:58.514Z,8.33
2018-09-10T22:22:27.419Z,8.47
2018-09-10T22:24:56.269Z,7.90
2018-09-10T22:27:25.092Z,9.57
2018-09-10T22:29:53.952Z,8.13
2018-09-10T22:32:22.936Z,8.57
2018-09-10T22:34:51.876Z,8.63
2018-09-10T22:37:20.699Z,8.30
2018-09-10T22:39:49.534Z,7.90
2018-09-10T22:42:18.394Z,9.53
2018-09-10T22:44:47.235Z,9.13
2018-09-10T22:47:16.118Z,10.53
2018-09-10T22:49:45.060Z,9.10
2018-09-10T22:52:13.880Z,9.40
2018-09-10T22:54:42.720Z,8.27
2018-09-10T22:57:11.602Z,8.60
2018-09-10T22:59:40.527Z,8.53
2018-09-10T23:02:09.358Z,7.80
2018-09-10T23:04:38.200Z,8.70
2018-09-10T23:07:07.092Z,9.13
2018-09-10T23:09:36.032Z,7.90
2018-09-10T23:12:04.904Z,8.10
2018-09-10T23:14:33.744Z,8.10
2018-09-10T23:17:02.603Z,8.60
2018-09-10T23:19:31.431Z,10.73
2018-09-10T23:22:00.273Z,8.97
2018-09-10T23:24:29.122Z,9.73
2018-09-10T23:26:58.032Z,8.50
2018-09-10T23:29:26.897Z,8.17
2018-09-10T23:31:55.740Z,8.17
2018-09-10T23:34:24.589Z,7.60
2018-09-10T23:36:53.457Z,8.67
2018-09-10T23:39:22.310Z,8.53
2018-09-10T23:41:51.123Z,7.80
2018-09-10T23:44:19.971Z,9.10
2018-09-10T23:46:48.824Z,8.70
2018-09-10T23:49:17.694Z,8.03
2018-09-10T23:51:46.746Z,8.33
2018-09-10T23:54:15.689Z,7.97
2018-09-10T23:56:44.524Z,8.93
2018-09-10T23:59:13.423Z,8.73
